createdAt,value
2023-03-11T00:04:33.468Z,2.48
2023-03-11T00:09:34.750Z,2.67
2023-03-11T00:14:36.103Z,2.53
2023-03-11T00:19:37.369Z,2.60
2023-03-11T00:24:38.630Z,2.55
2023-03-11T00:29:39.887Z,2.57
2023-03-11T00:34:41.099Z,2.55
2023-03-11T00:39:42.349Z,2.41
2023-03-11T00:44:43.623Z,2.40
2023-03-11T00:49:44.841Z,2.40
2023-03-11T00:54:46.180Z,2.36
2023-03-11T00:59:47.442Z,2.39
2023-03-11T01:04:48.721Z,2.40
2023-03-11T01:09:50.101Z,2.38
2023-03-11T01:14:51.382Z,2.38
2023-03-11T01:19:52.673Z,2.37
2023-03-11T01:24:53.891Z,2.27
2023-03-11T01:29:55.172Z,2.20
2023-03-11T01:34:56.379Z,2.29
2023-03-11T01:39:57.622Z,2.19
2023-03-11T01:50:42.791Z,2.18
2023-03-11T01:55:44.019Z,2.12
2023-03-11T02:00:45.262Z,2.20
2023-03-11T02:05:46.553Z,2.12
2023-03-11T02:10:47.820Z,2.16
2023-03-11T02:15:49.081Z,2.20
2023-03-11T02:20:50.380Z,2.22
2023-03-11T02:25:51.943Z,2.14
2023-03-11T02:30:53.508Z,2.00
2023-03-11T02:35:55.038Z,2.07
2023-03-11T02:40:56.764Z,2.16
2023-03-11T02:45:58.042Z,2.09
2023-03-11T02:50:59.251Z,1.85
2023-03-11T02:56:00.462Z,2.05
2023-03-11T03:01:01.755Z,2.34
2023-03-11T03:06:03.024Z,1.93
2023-03-11T03:11:04.321Z,1.89
2023-03-11T03:16:05.633Z,2.06
2023-03-11T03:21:06.937Z,1.86
2023-03-11T03:26:08.228Z,2.07
2023-03-11T03:31:09.548Z,1.75
2023-03-11T03:36:10.822Z,1.64
2023-03-11T03:41:12.093Z,1.57
2023-03-11T03:46:13.409Z,1.53
2023-03-11T03:51:14.715Z,1.56
2023-03-11T03:56:15.957Z,1.54
2023-03-11T04:01:17.206Z,1.72
2023-03-11T04:06:18.490Z,1.61
2023-03-11T04:11:19.738Z,1.56
2023-03-11T04:16:21.025Z,1.73
2023-03-11T04:21:22.527Z,1.58
2023-03-11T04:26:23.801Z,1.36
2023-03-11T04:31:25.075Z,1.36
2023-03-11T04:36:26.552Z,1.20
2023-03-11T04:41:27.879Z,1.15
2023-03-11T04:46:29.244Z,1.09
2023-03-11T04:51:31.117Z,0.95
2023-03-11T04:56:32.351Z,1.00
2023-03-11T05:01:33.677Z,0.81
2023-03-11T05:06:34.962Z,0.80
2023-03-11T05:11:36.189Z,0.84
2023-03-11T05:16:37.410Z,0.83
2023-03-11T05:21:38.683Z,0.68
2023-03-11T05:26:39.952Z,0.86
2023-03-11T05:31:41.158Z,0.80
2023-03-11T05:36:42.401Z,0.77
2023-03-11T05:41:43.664Z,0.95
2023-03-11T05:46:45.020Z,0.91
2023-03-11T05:51:46.335Z,1.08
2023-03-11T05:56:47.624Z,0.69
2023-03-11T06:01:48.935Z,0.36
2023-03-11T06:06:50.261Z,0.57
2023-03-11T06:11:51.546Z,0.82
2023-03-11T06:16:52.804Z,0.52
2023-03-11T06:21:54.116Z,0.62
2023-03-11T06:26:55.583Z,0.83
2023-03-11T06:31:56.897Z,0.89
2023-03-11T06:36:59.463Z,0.90
2023-03-11T06:42:00.695Z,0.82
2023-03-11T06:47:01.935Z,0.81
2023-03-11T06:52:03.294Z,1.04
2023-03-11T06:57:04.638Z,1.13
2023-03-11T07:02:06.005Z,0.96
2023-03-11T07:07:07.268Z,0.94
2023-03-11T07:12:08.758Z,0.98
2023-03-11T07:17:10.122Z,0.92
2023-03-11T07:22:11.494Z,1.12
2023-03-11T07:27:12.757Z,1.28
2023-03-11T07:32:14.337Z,1.27
2023-03-11T07:37:15.784Z,1.01
2023-03-11T07:42:17.386Z,1.22
2023-03-11T07:47:18.705Z,0.99
2023-03-11T07:52:20.164Z,1.51
2023-03-11T07:57:21.426Z,1.87
2023-03-11T08:02:22.705Z,1.94
2023-03-11T08:07:24.022Z,2.03
2023-03-11T08:12:25.285Z,1.96
2023-03-11T08:17:26.587Z,1.98
2023-03-11T08:22:27.852Z,1.87
2023-03-11T08:27:29.084Z,2.12
2023-03-11T08:32:31.600Z,2.27
2023-03-11T08:37:32.902Z,2.48
2023-03-11T08:42:35.704Z,2.11
2023-03-11T08:47:38.265Z,2.28
2023-03-11T08:52:39.504Z,2.24
2023-03-11T08:57:41.181Z,3.02
2023-03-11T09:02:43.499Z,3.45
2023-03-11T09:07:44.810Z,3.60
2023-03-11T09:12:46.073Z,3.28
2023-03-11T09:17:47.410Z,2.86
2023-03-11T09:22:48.647Z,2.43
2023-03-11T09:27:49.962Z,2.40
2023-03-11T09:32:51.328Z,2.64
2023-03-11T09:37:52.653Z,3.12
2023-03-11T09:42:53.939Z,3.55
2023-03-11T09:47:55.686Z,3.72
2023-03-11T09:52:56.889Z,3.57
2023-03-11T09:57:58.149Z,3.06
2023-03-11T10:02:59.475Z,2.84
2023-03-11T10:08:00.803Z,2.91
2023-03-11T10:13:02.006Z,3.33
2023-03-11T10:18:03.394Z,2.54
2023-03-11T10:23:04.682Z,3.17
2023-03-11T10:28:06.329Z,2.46
2023-03-11T10:33:07.829Z,2.40
2023-03-11T10:38:09.215Z,2.73
2023-03-11T10:43:10.534Z,2.62
2023-03-11T10:48:11.773Z,2.37
2023-03-11T10:53:13.237Z,3.04
2023-03-11T10:58:14.516Z,3.17
2023-03-11T11:03:15.706Z,2.91
2023-03-11T11:08:17.159Z,3.31
2023-03-11T11:13:18.575Z,3.72
2023-03-11T11:18:19.811Z,3.62
2023-03-11T11:23:23.353Z,3.52
2023-03-11T11:28:24.592Z,3.31
2023-03-11T11:33:25.884Z,3.15
2023-03-11T11:38:27.206Z,3.52
2023-03-11T11:43:28.497Z,4.63
2023-03-11T11:48:29.757Z,5.31
2023-03-11T11:53:31.264Z,5.84
2023-03-11T11:58:32.571Z,5.05
2023-03-11T12:03:33.842Z,4.05
2023-03-11T12:08:35.261Z,3.93
2023-03-11T12:13:36.519Z,4.13
2023-03-11T12:18:38.954Z,3.91
2023-03-11T12:23:40.276Z,3.65
2023-03-11T12:28:41.530Z,3.98
2023-03-11T12:33:42.807Z,4.21
2023-03-11T12:38:44.099Z,4.12
2023-03-11T12:43:46.225Z,3.98
2023-03-11T12:48:49.625Z,3.17
2023-03-11T12:53:50.882Z,2.91
2023-03-11T12:58:52.118Z,2.79
2023-03-11T13:03:53.384Z,2.77
2023-03-11T13:08:54.877Z,3.08
2023-03-11T13:13:56.266Z,3.57
2023-03-11T13:18:57.529Z,3.55
2023-03-11T13:23:58.794Z,3.54
2023-03-11T13:29:00.181Z,3.38
2023-03-11T13:34:01.523Z,3.58
2023-03-11T13:39:02.941Z,3.52
2023-03-11T13:44:04.310Z,3.16
2023-03-11T13:49:05.572Z,2.98
2023-03-11T13:54:06.846Z,2.96
2023-03-11T13:59:08.063Z,3.04
2023-03-11T14:04:09.380Z,3.09
2023-03-11T14:09:10.640Z,2.99
2023-03-11T14:14:23.830Z,2.82
2023-03-11T14:19:25.108Z,2.69
2023-03-11T14:24:26.323Z,2.72
2023-03-11T14:29:27.553Z,2.87
2023-03-11T14:34:28.898Z,3.06
2023-03-11T14:39:30.166Z,3.10
2023-03-11T14:44:31.474Z,3.09
2023-03-11T14:49:32.698Z,3.12
2023-03-11T14:54:33.956Z,3.01
2023-03-11T14:59:35.211Z,3.05
2023-03-11T15:04:37.981Z,3.24
2023-03-11T15:09:39.254Z,3.00
2023-03-11T15:14:40.659Z,3.06
2023-03-11T15:19:42.074Z,3.08
2023-03-11T15:24:43.335Z,3.60
2023-03-11T15:29:46.054Z,3.85
2023-03-11T15:34:47.333Z,3.78
2023-03-11T15:39:51.103Z,3.89
2023-03-11T15:44:52.666Z,3.56
2023-03-11T15:49:53.912Z,3.35
2023-03-11T15:54:56.241Z,3.11
2023-03-11T15:59:57.576Z,3.67
2023-03-11T16:04:59.034Z,4.10
2023-03-11T16:10:02.164Z,4.06
2023-03-11T16:15:04.557Z,4.31
2023-03-11T16:20:05.861Z,4.58
2023-03-11T16:25:08.748Z,4.41
2023-03-11T16:30:10.046Z,4.77
2023-03-11T16:35:11.905Z,4.76
2023-03-11T16:40:13.157Z,4.55
2023-03-11T16:45:14.541Z,3.79
2023-03-11T16:50:15.788Z,3.99
2023-03-11T16:55:17.000Z,3.88
2023-03-11T17:00:18.298Z,3.59
2023-03-11T17:05:19.760Z,3.86
2023-03-11T17:10:21.056Z,3.81
2023-03-11T17:15:22.347Z,3.56
2023-03-11T17:20:23.644Z,3.64
2023-03-11T17:25:24.884Z,3.87
2023-03-11T17:30:36.366Z,3.84
2023-03-11T17:35:38.639Z,4.13
2023-03-11T17:40:39.969Z,3.38
2023-03-11T17:45:41.290Z,3.21
2023-03-11T17:50:42.640Z,3.19
2023-03-11T17:55:43.897Z,3.22
2023-03-11T18:00:45.194Z,3.36
2023-03-11T18:05:46.460Z,3.07
2023-03-11T18:10:47.697Z,3.79
2023-03-11T18:15:49.011Z,3.59
2023-03-11T18:20:50.267Z,3.29
2023-03-11T18:25:51.841Z,3.28
2023-03-11T18:30:53.978Z,3.37
2023-03-11T18:35:55.317Z,3.53
2023-03-11T18:40:56.621Z,3.30
2023-03-11T18:45:57.981Z,3.05
2023-03-11T18:50:59.361Z,3.08
2023-03-11T18:56:00.626Z,3.38
2023-03-11T19:01:02.090Z,3.66
2023-03-11T19:06:03.455Z,3.94
2023-03-11T19:11:04.730Z,3.89
2023-03-11T19:16:05.999Z,4.17
2023-03-11T19:21:07.322Z,4.39
2023-03-11T19:26:08.559Z,4.33
2023-03-11T19:31:09.933Z,4.10
2023-03-11T19:36:11.218Z,4.05
2023-03-11T19:41:13.416Z,4.17
2023-03-11T19:46:14.812Z,4.23
2023-03-11T19:51:17.463Z,4.31
2023-03-11T19:56:19.199Z,4.34
2023-03-11T20:01:20.615Z,4.26
2023-03-11T20:06:23.456Z,4.10
2023-03-11T20:11:24.746Z,3.97
2023-03-11T20:16:26.227Z,3.86
2023-03-11T20:21:27.538Z,3.77
2023-03-11T20:26:31.369Z,3.65
2023-03-11T20:31:32.676Z,3.49
2023-03-11T20:36:34.244Z,3.47
2023-03-11T20:41:37.480Z,3.37
2023-03-11T20:46:38.937Z,3.33
2023-03-11T20:51:41.772Z,3.13
2023-03-11T20:56:43.560Z,3.06
2023-03-11T21:01:45.975Z,3.14
2023-03-11T21:06:49.770Z,3.08
2023-03-11T21:11:51.184Z,3.17
2023-03-11T21:16:52.892Z,3.02
2023-03-11T21:21:54.479Z,2.95
2023-03-11T21:26:55.945Z,2.94
2023-03-11T21:31:58.270Z,2.86
2023-03-11T21:37:00.918Z,2.76
2023-03-11T21:42:02.723Z,2.58
2023-03-11T21:47:04.148Z,2.69
2023-03-11T21:52:05.545Z,2.55
2023-03-11T21:57:06.931Z,2.49
2023-03-11T22:02:08.393Z,2.35
2023-03-11T22:07:09.740Z,2.40
2023-03-11T22:12:11.100Z,2.30
2023-03-11T22:17:12.510Z,2.29
2023-03-11T22:22:13.880Z,2.25
2023-03-11T22:27:15.101Z,2.23
2023-03-11T22:32:16.461Z,2.04
2023-03-11T22:37:17.716Z,1.87
2023-03-11T22:42:19.029Z,1.73
2023-03-11T22:47:20.384Z,2.06
2023-03-11T22:52:21.699Z,2.17
2023-03-11T22:57:23.038Z,2.41
2023-03-11T23:02:24.329Z,2.44
2023-03-11T23:07:25.760Z,2.11
2023-03-11T23:12:27.066Z,2.17
2023-03-11T23:17:28.305Z,2.12
2023-03-11T23:22:29.539Z,2.21
2023-03-11T23:27:30.807Z,2.09
2023-03-11T23:32:32.079Z,2.20
2023-03-11T23:37:33.396Z,1.78
2023-03-11T23:42:34.795Z,1.99
2023-03-11T23:47:36.024Z,2.11
2023-03-11T23:52:37.367Z,2.24
2023-03-11T23:57:38.644Z,2.08
